Weather at Roanoke–Blacksburg Regional Airport

Public forecast

Using degrees Fahrenheit for public forecast. Weather courtesy of forecast.io.

Current aviation weather report (METAR) for Roanoke–Blacksburg Regional Airport

Retrieved 2021/10/21 03:54 UTC (22 minutes ago):

KROA 210354Z 00000KT 10SM CLR 11/07 A3018 RMK AO2 SLP214 T01060072

Aviation forecast (TAF) for Roanoke–Blacksburg Regional Airport

Retrieved 2021-10-21 00:22 UTC (4 hours ago):

TAF KROA 202320Z 2100/2124 VRB03KT P6SM SKC FM211800 23008KT P6SM SCT200